sensor_id;sensor_type;location;lat;lon;timestamp;P1;durP1;ratioP1;P2;durP2;ratioP2
19231;SDS011;9750;48.730;10.294;2023-06-14T00:00:16;7.43;;;5.53;;
19231;SDS011;9750;48.730;10.294;2023-06-14T00:02:43;6.40;;;5.03;;
19231;SDS011;9750;48.730;10.294;2023-06-14T00:05:11;5.83;;;5.13;;
19231;SDS011;9750;48.730;10.294;2023-06-14T00:07:38;5.83;;;5.30;;
19231;SDS011;9750;48.730;10.294;2023-06-14T00:10:08;5.77;;;5.17;;
19231;SDS011;9750;48.730;10.294;2023-06-14T00:12:38;6.03;;;5.23;;
19231;SDS011;9750;48.730;10.294;2023-06-14T00:15:06;5.43;;;4.93;;
19231;SDS011;9750;48.730;10.294;2023-06-14T00:17:35;9.03;;;4.73;;
19231;SDS011;9750;48.730;10.294;2023-06-14T00:20:04;7.87;;;5.30;;
19231;SDS011;9750;48.730;10.294;2023-06-14T00:22:33;5.27;;;4.77;;
19231;SDS011;9750;48.730;10.294;2023-06-14T00:25:01;8.27;;;5.00;;
19231;SDS011;9750;48.730;10.294;2023-06-14T00:30:17;5.30;;;4.80;;
19231;SDS011;9750;48.730;10.294;2023-06-14T00:32:44;6.37;;;4.57;;
19231;SDS011;9750;48.730;10.294;2023-06-14T00:35:11;6.07;;;5.03;;
19231;SDS011;9750;48.730;10.294;2023-06-14T00:41:01;5.53;;;4.93;;
19231;SDS011;9750;48.730;10.294;2023-06-14T00:43:30;6.20;;;5.00;;
19231;SDS011;9750;48.730;10.294;2023-06-14T00:45:57;5.73;;;5.13;;
19231;SDS011;9750;48.730;10.294;2023-06-14T00:48:25;5.37;;;4.87;;
19231;SDS011;9750;48.730;10.294;2023-06-14T00:50:52;5.67;;;5.17;;
19231;SDS011;9750;48.730;10.294;2023-06-14T00:53:21;5.70;;;4.97;;
19231;SDS011;9750;48.730;10.294;2023-06-14T00:55:50;5.43;;;4.87;;
19231;SDS011;9750;48.730;10.294;2023-06-14T00:58:17;6.13;;;5.53;;
19231;SDS011;9750;48.730;10.294;2023-06-14T01:00:47;6.30;;;5.43;;
19231;SDS011;9750;48.730;10.294;2023-06-14T01:03:14;6.10;;;5.00;;
19231;SDS011;9750;48.730;10.294;2023-06-14T01:05:47;6.97;;;5.47;;
19231;SDS011;9750;48.730;10.294;2023-06-14T01:08:18;6.03;;;5.43;;
19231;SDS011;9750;48.730;10.294;2023-06-14T01:10:52;8.43;;;6.20;;
19231;SDS011;9750;48.730;10.294;2023-06-14T01:13:27;8.10;;;7.27;;
19231;SDS011;9750;48.730;10.294;2023-06-14T01:16:00;7.37;;;6.67;;
19231;SDS011;9750;48.730;10.294;2023-06-14T01:18:28;10.00;;;7.30;;
19231;SDS011;9750;48.730;10.294;2023-06-14T01:20:57;8.90;;;7.00;;
19231;SDS011;9750;48.730;10.294;2023-06-14T01:23:26;8.10;;;6.80;;
19231;SDS011;9750;48.730;10.294;2023-06-14T01:25:57;7.83;;;6.90;;
19231;SDS011;9750;48.730;10.294;2023-06-14T01:28:25;7.27;;;6.53;;
19231;SDS011;9750;48.730;10.294;2023-06-14T01:30:57;7.40;;;6.70;;
19231;SDS011;9750;48.730;10.294;2023-06-14T01:33:29;8.60;;;7.07;;
19231;SDS011;9750;48.730;10.294;2023-06-14T01:35:58;7.43;;;6.70;;
19231;SDS011;9750;48.730;10.294;2023-06-14T01:38:28;7.93;;;6.30;;
19231;SDS011;9750;48.730;10.294;2023-06-14T01:40:56;7.73;;;6.47;;
19231;SDS011;9750;48.730;10.294;2023-06-14T01:43:25;8.07;;;5.93;;
19231;SDS011;9750;48.730;10.294;2023-06-14T01:45:54;7.07;;;5.40;;
19231;SDS011;9750;48.730;10.294;2023-06-14T01:51:26;7.40;;;5.77;;
19231;SDS011;9750;48.730;10.294;2023-06-14T01:53:54;6.07;;;5.53;;
19231;SDS011;9750;48.730;10.294;2023-06-14T01:56:22;6.20;;;5.60;;
19231;SDS011;9750;48.730;10.294;2023-06-14T01:58:49;5.57;;;5.07;;
19231;SDS011;9750;48.730;10.294;2023-06-14T02:01:17;5.50;;;5.00;;
19231;SDS011;9750;48.730;10.294;2023-06-14T02:03:46;8.13;;;5.20;;
19231;SDS011;9750;48.730;10.294;2023-06-14T02:06:14;7.87;;;5.73;;
19231;SDS011;9750;48.730;10.294;2023-06-14T02:08:42;5.70;;;4.97;;
19231;SDS011;9750;48.730;10.294;2023-06-14T02:11:11;7.67;;;5.90;;
19231;SDS011;9750;48.730;10.294;2023-06-14T02:13:38;6.47;;;5.83;;
19231;SDS011;9750;48.730;10.294;2023-06-14T02:16:05;6.50;;;5.90;;
19231;SDS011;9750;48.730;10.294;2023-06-14T02:18:33;6.07;;;5.40;;
19231;SDS011;9750;48.730;10.294;2023-06-14T02:21:00;7.77;;;5.20;;
19231;SDS011;9750;48.730;10.294;2023-06-14T02:23:27;5.87;;;5.07;;
19231;SDS011;9750;48.730;10.294;2023-06-14T02:25:54;5.70;;;5.20;;
19231;SDS011;9750;48.730;10.294;2023-06-14T02:28:23;6.57;;;5.07;;
19231;SDS011;9750;48.730;10.294;2023-06-14T02:30:51;6.67;;;5.30;;
19231;SDS011;9750;48.730;10.294;2023-06-14T02:33:18;5.30;;;4.80;;
19231;SDS011;9750;48.730;10.294;2023-06-14T02:35:45;7.10;;;5.03;;
19231;SDS011;9750;48.730;10.294;2023-06-14T02:38:12;6.17;;;4.83;;
19231;SDS011;9750;48.730;10.294;2023-06-14T02:40:40;6.27;;;4.93;;
19231;SDS011;9750;48.730;10.294;2023-06-14T02:43:08;7.27;;;5.43;;
19231;SDS011;9750;48.730;10.294;2023-06-14T02:45:36;5.40;;;4.73;;
19231;SDS011;9750;48.730;10.294;2023-06-14T02:48:04;6.27;;;5.00;;
19231;SDS011;9750;48.730;10.294;2023-06-14T02:50:31;7.60;;;5.50;;
19231;SDS011;9750;48.730;10.294;2023-06-14T02:52:58;6.13;;;4.80;;
19231;SDS011;9750;48.730;10.294;2023-06-14T02:55:27;6.70;;;5.50;;
19231;SDS011;9750;48.730;10.294;2023-06-14T02:57:55;5.90;;;4.90;;
19231;SDS011;9750;48.730;10.294;2023-06-14T03:00:22;4.73;;;4.20;;
19231;SDS011;9750;48.730;10.294;2023-06-14T03:02:51;8.40;;;5.43;;
19231;SDS011;9750;48.730;10.294;2023-06-14T03:05:19;5.53;;;4.87;;
19231;SDS011;9750;48.730;10.294;2023-06-14T03:11:09;6.33;;;5.43;;
19231;SDS011;9750;48.730;10.294;2023-06-14T03:13:36;5.17;;;4.63;;
19231;SDS011;9750;48.730;10.294;2023-06-14T03:16:04;7.47;;;5.77;;
19231;SDS011;9750;48.730;10.294;2023-06-14T03:18:33;7.13;;;5.40;;
19231;SDS011;9750;48.730;10.294;2023-06-14T03:21:01;7.10;;;5.27;;
19231;SDS011;9750;48.730;10.294;2023-06-14T03:23:29;5.70;;;5.17;;
19231;SDS011;9750;48.730;10.294;2023-06-14T03:25:56;10.03;;;5.67;;
19231;SDS011;9750;48.730;10.294;2023-06-14T03:28:23;6.70;;;5.20;;
19231;SDS011;9750;48.730;10.294;2023-06-14T03:30:51;5.57;;;4.97;;
19231;SDS011;9750;48.730;10.294;2023-06-14T03:33:18;5.90;;;5.17;;
19231;SDS011;9750;48.730;10.294;2023-06-14T03:35:47;5.17;;;4.30;;
19231;SDS011;9750;48.730;10.294;2023-06-14T03:38:14;5.43;;;4.93;;
19231;SDS011;9750;48.730;10.294;2023-06-14T03:40:42;6.53;;;5.03;;
19231;SDS011;9750;48.730;10.294;2023-06-14T03:43:09;7.38;;;5.40;;
19231;SDS011;9750;48.730;10.294;2023-06-14T03:45:37;6.80;;;5.70;;
19231;SDS011;9750;48.730;10.294;2023-06-14T03:48:04;6.97;;;6.20;;
19231;SDS011;9750;48.730;10.294;2023-06-14T03:50:33;7.20;;;5.27;;
19231;SDS011;9750;48.730;10.294;2023-06-14T03:53:04;6.60;;;5.90;;
19231;SDS011;9750;48.730;10.294;2023-06-14T03:55:32;10.17;;;6.23;;
19231;SDS011;9750;48.730;10.294;2023-06-14T04:01:21;8.60;;;6.20;;
19231;SDS011;9750;48.730;10.294;2023-06-14T04:03:54;10.57;;;6.20;;
19231;SDS011;9750;48.730;10.294;2023-06-14T04:06:23;7.30;;;6.57;;
19231;SDS011;9750;48.730;10.294;2023-06-14T04:08:58;7.07;;;5.93;;
19231;SDS011;9750;48.730;10.294;2023-06-14T04:11:29;8.20;;;5.40;;
19231;SDS011;9750;48.730;10.294;2023-06-14T04:13:57;7.27;;;5.60;;
19231;SDS011;9750;48.730;10.294;2023-06-14T04:16:25;6.67;;;5.97;;
19231;SDS011;9750;48.730;10.294;2023-06-14T04:18:53;7.27;;;5.20;;
19231;SDS011;9750;48.730;10.294;2023-06-14T04:21:23;7.47;;;5.50;;
19231;SDS011;9750;48.730;10.294;2023-06-14T04:23:52;5.83;;;5.23;;
19231;SDS011;9750;48.730;10.294;2023-06-14T04:26:22;6.43;;;5.50;;
19231;SDS011;9750;48.730;10.294;2023-06-14T04:28:54;6.43;;;5.40;;
19231;SDS011;9750;48.730;10.294;2023-06-14T04:31:22;9.30;;;5.60;;
19231;SDS011;9750;48.730;10.294;2023-06-14T04:33:50;6.87;;;5.70;;
19231;SDS011;9750;48.730;10.294;2023-06-14T04:36:19;5.47;;;4.97;;
19231;SDS011;9750;48.730;10.294;2023-06-14T04:38:46;8.13;;;5.90;;
19231;SDS011;9750;48.730;10.294;2023-06-14T04:41:14;6.20;;;5.70;;
19231;SDS011;9750;48.730;10.294;2023-06-14T04:43:45;6.63;;;5.40;;
19231;SDS011;9750;48.730;10.294;2023-06-14T04:46:13;5.73;;;4.80;;
19231;SDS011;9750;48.730;10.294;2023-06-14T04:48:41;5.70;;;5.20;;
19231;SDS011;9750;48.730;10.294;2023-06-14T04:51:09;5.70;;;5.00;;
19231;SDS011;9750;48.730;10.294;2023-06-14T04:53:36;5.90;;;5.30;;
19231;SDS011;9750;48.730;10.294;2023-06-14T04:56:04;6.43;;;5.23;;
19231;SDS011;9750;48.730;10.294;2023-06-14T04:58:31;5.40;;;4.67;;
19231;SDS011;9750;48.730;10.294;2023-06-14T05:01:00;5.87;;;5.20;;
19231;SDS011;9750;48.730;10.294;2023-06-14T05:03:28;6.57;;;5.60;;
19231;SDS011;9750;48.730;10.294;2023-06-14T05:05:55;5.63;;;4.70;;
19231;SDS011;9750;48.730;10.294;2023-06-14T05:08:22;6.10;;;5.00;;
19231;SDS011;9750;48.730;10.294;2023-06-14T05:10:51;6.97;;;5.23;;
19231;SDS011;9750;48.730;10.294;2023-06-14T05:13:18;7.03;;;5.17;;
19231;SDS011;9750;48.730;10.294;2023-06-14T05:15:47;7.47;;;5.57;;
19231;SDS011;9750;48.730;10.294;2023-06-14T05:18:15;7.40;;;5.27;;
19231;SDS011;9750;48.730;10.294;2023-06-14T05:20:43;5.60;;;5.00;;
19231;SDS011;9750;48.730;10.294;2023-06-14T05:23:11;7.57;;;5.50;;
19231;SDS011;9750;48.730;10.294;2023-06-14T05:25:42;6.33;;;5.13;;
19231;SDS011;9750;48.730;10.294;2023-06-14T05:28:09;6.43;;;5.43;;
19231;SDS011;9750;48.730;10.294;2023-06-14T05:30:37;6.43;;;5.37;;
19231;SDS011;9750;48.730;10.294;2023-06-14T05:33:05;7.50;;;5.20;;
19231;SDS011;9750;48.730;10.294;2023-06-14T05:35:34;7.87;;;5.27;;
19231;SDS011;9750;48.730;10.294;2023-06-14T05:38:01;6.07;;;5.37;;
19231;SDS011;9750;48.730;10.294;2023-06-14T05:40:28;6.53;;;5.00;;
19231;SDS011;9750;48.730;10.294;2023-06-14T05:42:56;6.60;;;5.20;;
19231;SDS011;9750;48.730;10.294;2023-06-14T05:45:23;8.83;;;5.37;;
19231;SDS011;9750;48.730;10.294;2023-06-14T05:47:50;7.17;;;5.00;;
19231;SDS011;9750;48.730;10.294;2023-06-14T05:50:19;7.23;;;5.30;;
19231;SDS011;9750;48.730;10.294;2023-06-14T05:52:48;7.27;;;5.40;;
19231;SDS011;9750;48.730;10.294;2023-06-14T05:55:16;5.93;;;5.13;;
19231;SDS011;9750;48.730;10.294;2023-06-14T05:57:43;5.23;;;4.73;;
19231;SDS011;9750;48.730;10.294;2023-06-14T06:00:11;6.00;;;5.13;;
19231;SDS011;9750;48.730;10.294;2023-06-14T06:02:40;7.90;;;5.23;;
19231;SDS011;9750;48.730;10.294;2023-06-14T06:05:08;7.37;;;5.17;;
19231;SDS011;9750;48.730;10.294;2023-06-14T06:07:36;5.90;;;5.30;;
19231;SDS011;9750;48.730;10.294;2023-06-14T06:10:07;7.67;;;5.33;;
19231;SDS011;9750;48.730;10.294;2023-06-14T06:12:35;5.93;;;5.33;;
19231;SDS011;9750;48.730;10.294;2023-06-14T06:15:02;7.43;;;5.27;;
19231;SDS011;9750;48.730;10.294;2023-06-14T06:17:30;5.80;;;5.23;;
19231;SDS011;9750;48.730;10.294;2023-06-14T06:19:57;6.40;;;5.80;;
19231;SDS011;9750;48.730;10.294;2023-06-14T06:22:24;6.67;;;5.23;;
19231;SDS011;9750;48.730;10.294;2023-06-14T06:24:51;7.07;;;5.40;;
19231;SDS011;9750;48.730;10.294;2023-06-14T06:30:42;5.90;;;5.37;;
19231;SDS011;9750;48.730;10.294;2023-06-14T06:33:09;6.13;;;5.53;;
19231;SDS011;9750;48.730;10.294;2023-06-14T06:35:37;7.27;;;5.30;;
19231;SDS011;9750;48.730;10.294;2023-06-14T06:38:04;5.87;;;5.37;;
19231;SDS011;9750;48.730;10.294;2023-06-14T06:40:31;7.50;;;5.10;;
19231;SDS011;9750;48.730;10.294;2023-06-14T06:42:58;5.13;;;4.63;;
19231;SDS011;9750;48.730;10.294;2023-06-14T06:45:26;5.93;;;4.90;;
19231;SDS011;9750;48.730;10.294;2023-06-14T06:47:54;6.30;;;5.07;;
19231;SDS011;9750;48.730;10.294;2023-06-14T06:50:22;5.47;;;4.80;;
19231;SDS011;9750;48.730;10.294;2023-06-14T06:52:50;5.60;;;4.47;;
19231;SDS011;9750;48.730;10.294;2023-06-14T06:55:18;5.07;;;4.30;;
19231;SDS011;9750;48.730;10.294;2023-06-14T06:57:45;5.83;;;4.40;;
19231;SDS011;9750;48.730;10.294;2023-06-14T07:00:12;5.30;;;4.80;;
19231;SDS011;9750;48.730;10.294;2023-06-14T07:02:40;6.90;;;4.40;;
19231;SDS011;9750;48.730;10.294;2023-06-14T07:05:09;6.20;;;4.93;;
19231;SDS011;9750;48.730;10.294;2023-06-14T07:07:36;6.17;;;4.77;;
19231;SDS011;9750;48.730;10.294;2023-06-14T07:10:04;5.83;;;4.60;;
19231;SDS011;9750;48.730;10.294;2023-06-14T07:12:32;5.80;;;4.70;;
19231;SDS011;9750;48.730;10.294;2023-06-14T07:15:04;6.07;;;4.40;;
19231;SDS011;9750;48.730;10.294;2023-06-14T07:17:33;7.50;;;4.53;;
19231;SDS011;9750;48.730;10.294;2023-06-14T07:20:00;4.97;;;4.23;;
19231;SDS011;9750;48.730;10.294;2023-06-14T07:22:38;8.90;;;4.77;;
19231;SDS011;9750;48.730;10.294;2023-06-14T07:25:07;7.70;;;4.83;;
19231;SDS011;9750;48.730;10.294;2023-06-14T07:27:35;5.20;;;4.70;;
19231;SDS011;9750;48.730;10.294;2023-06-14T07:30:02;5.20;;;4.33;;
19231;SDS011;9750;48.730;10.294;2023-06-14T07:32:30;5.47;;;4.30;;
19231;SDS011;9750;48.730;10.294;2023-06-14T07:34:57;5.27;;;4.77;;
19231;SDS011;9750;48.730;10.294;2023-06-14T07:37:24;6.00;;;4.63;;
19231;SDS011;9750;48.730;10.294;2023-06-14T07:39:53;8.50;;;4.57;;
19231;SDS011;9750;48.730;10.294;2023-06-14T07:42:20;6.17;;;4.67;;
19231;SDS011;9750;48.730;10.294;2023-06-14T07:44:47;5.37;;;4.73;;
19231;SDS011;9750;48.730;10.294;2023-06-14T07:47:16;5.93;;;4.23;;
19231;SDS011;9750;48.730;10.294;2023-06-14T07:49:43;6.50;;;4.70;;
19231;SDS011;9750;48.730;10.294;2023-06-14T07:52:10;12.63;;;7.70;;
19231;SDS011;9750;48.730;10.294;2023-06-14T07:54:38;7.27;;;5.47;;
19231;SDS011;9750;48.730;10.294;2023-06-14T07:57:07;9.80;;;5.53;;
19231;SDS011;9750;48.730;10.294;2023-06-14T07:59:35;7.43;;;4.93;;
19231;SDS011;9750;48.730;10.294;2023-06-14T08:02:02;20.73;;;9.10;;
19231;SDS011;9750;48.730;10.294;2023-06-14T08:04:30;7.30;;;4.50;;
19231;SDS011;9750;48.730;10.294;2023-06-14T08:06:58;5.87;;;4.70;;
19231;SDS011;9750;48.730;10.294;2023-06-14T08:09:26;7.73;;;4.90;;
19231;SDS011;9750;48.730;10.294;2023-06-14T08:11:54;7.57;;;5.20;;
19231;SDS011;9750;48.730;10.294;2023-06-14T08:14:22;6.93;;;4.80;;
19231;SDS011;9750;48.730;10.294;2023-06-14T08:16:50;5.40;;;4.83;;
19231;SDS011;9750;48.730;10.294;2023-06-14T08:19:17;6.27;;;4.60;;
19231;SDS011;9750;48.730;10.294;2023-06-14T08:21:45;5.83;;;4.67;;
19231;SDS011;9750;48.730;10.294;2023-06-14T08:24:12;6.87;;;4.70;;
19231;SDS011;9750;48.730;10.294;2023-06-14T08:26:39;6.73;;;4.77;;
19231;SDS011;9750;48.730;10.294;2023-06-14T08:29:07;6.50;;;4.90;;
19231;SDS011;9750;48.730;10.294;2023-06-14T08:31:36;6.00;;;4.30;;
19231;SDS011;9750;48.730;10.294;2023-06-14T08:34:03;7.27;;;4.43;;
19231;SDS011;9750;48.730;10.294;2023-06-14T08:36:31;6.72;;;4.53;;
19231;SDS011;9750;48.730;10.294;2023-06-14T08:38:58;7.13;;;4.97;;
19231;SDS011;9750;48.730;10.294;2023-06-14T08:41:25;5.23;;;4.73;;
19231;SDS011;9750;48.730;10.294;2023-06-14T08:43:54;5.75;;;4.65;;
19231;SDS011;9750;48.730;10.294;2023-06-14T08:46:22;7.40;;;4.63;;
19231;SDS011;9750;48.730;10.294;2023-06-14T08:48:54;4.88;;;4.38;;
19231;SDS011;9750;48.730;10.294;2023-06-14T08:51:23;6.00;;;4.35;;
19231;SDS011;9750;48.730;10.294;2023-06-14T08:53:59;8.02;;;4.57;;
19231;SDS011;9750;48.730;10.294;2023-06-14T08:56:27;5.43;;;4.78;;
19231;SDS011;9750;48.730;10.294;2023-06-14T08:58:55;5.43;;;4.82;;
19231;SDS011;9750;48.730;10.294;2023-06-14T09:01:26;6.85;;;4.47;;
19231;SDS011;9750;48.730;10.294;2023-06-14T09:03:55;5.15;;;4.63;;
19231;SDS011;9750;48.730;10.294;2023-06-14T09:06:22;6.22;;;4.88;;
19231;SDS011;9750;48.730;10.294;2023-06-14T09:08:50;6.07;;;4.60;;
19231;SDS011;9750;48.730;10.294;2023-06-14T09:11:18;5.85;;;4.65;;
19231;SDS011;9750;48.730;10.294;2023-06-14T09:13:45;7.35;;;4.38;;
19231;SDS011;9750;48.730;10.294;2023-06-14T09:16:13;6.57;;;4.35;;
19231;SDS011;9750;48.730;10.294;2023-06-14T09:18:42;10.13;;;7.20;;
19231;SDS011;9750;48.730;10.294;2023-06-14T09:21:14;7.47;;;5.70;;
19231;SDS011;9750;48.730;10.294;2023-06-14T09:23:43;5.32;;;4.70;;
19231;SDS011;9750;48.730;10.294;2023-06-14T09:26:12;6.15;;;4.95;;
19231;SDS011;9750;48.730;10.294;2023-06-14T09:28:43;9.65;;;7.97;;
19231;SDS011;9750;48.730;10.294;2023-06-14T09:31:10;4.60;;;3.42;;
19231;SDS011;9750;48.730;10.294;2023-06-14T09:33:38;5.20;;;4.60;;
19231;SDS011;9750;48.730;10.294;2023-06-14T09:36:09;4.57;;;4.18;;
19231;SDS011;9750;48.730;10.294;2023-06-14T09:38:39;6.03;;;4.07;;
19231;SDS011;9750;48.730;10.294;2023-06-14T09:41:07;6.13;;;3.97;;
19231;SDS011;9750;48.730;10.294;2023-06-14T09:43:34;5.07;;;4.50;;
19231;SDS011;9750;48.730;10.294;2023-06-14T09:46:03;6.82;;;4.70;;
19231;SDS011;9750;48.730;10.294;2023-06-14T09:48:32;6.15;;;4.47;;
19231;SDS011;9750;48.730;10.294;2023-06-14T09:50:59;5.70;;;4.13;;
19231;SDS011;9750;48.730;10.294;2023-06-14T09:53:29;4.22;;;3.83;;
19231;SDS011;9750;48.730;10.294;2023-06-14T09:56:00;5.20;;;4.68;;
19231;SDS011;9750;48.730;10.294;2023-06-14T09:58:28;6.68;;;4.50;;
19231;SDS011;9750;48.730;10.294;2023-06-14T10:01:00;4.78;;;4.38;;
19231;SDS011;9750;48.730;10.294;2023-06-14T10:03:28;5.55;;;4.47;;
19231;SDS011;9750;48.730;10.294;2023-06-14T10:05:58;4.85;;;3.90;;
19231;SDS011;9750;48.730;10.294;2023-06-14T10:08:29;6.93;;;4.78;;
19231;SDS011;9750;48.730;10.294;2023-06-14T10:11:02;7.55;;;4.05;;
19231;SDS011;9750;48.730;10.294;2023-06-14T10:16:00;7.30;;;4.30;;
19231;SDS011;9750;48.730;10.294;2023-06-14T10:18:35;8.95;;;4.00;;
19231;SDS011;9750;48.730;10.294;2023-06-14T10:21:11;4.60;;;4.13;;
19231;SDS011;9750;48.730;10.294;2023-06-14T10:23:43;6.80;;;3.90;;
19231;SDS011;9750;48.730;10.294;2023-06-14T10:26:20;5.97;;;4.50;;
19231;SDS011;9750;48.730;10.294;2023-06-14T10:28:55;5.88;;;4.03;;
19231;SDS011;9750;48.730;10.294;2023-06-14T10:31:39;5.00;;;4.20;;
19231;SDS011;9750;48.730;10.294;2023-06-14T10:34:07;4.20;;;3.60;;
19231;SDS011;9750;48.730;10.294;2023-06-14T10:36:35;4.25;;;3.85;;
19231;SDS011;9750;48.730;10.294;2023-06-14T10:39:06;5.65;;;4.07;;
19231;SDS011;9750;48.730;10.294;2023-06-14T10:41:36;5.80;;;4.47;;
19231;SDS011;9750;48.730;10.294;2023-06-14T10:47:00;5.72;;;4.30;;
19231;SDS011;9750;48.730;10.294;2023-06-14T10:49:40;5.38;;;4.07;;
19231;SDS011;9750;48.730;10.294;2023-06-14T10:52:10;5.88;;;3.90;;
19231;SDS011;9750;48.730;10.294;2023-06-14T10:55:01;4.80;;;3.80;;
19231;SDS011;9750;48.730;10.294;2023-06-14T10:57:38;5.75;;;3.90;;
19231;SDS011;9750;48.730;10.294;2023-06-14T11:00:07;4.18;;;3.67;;
19231;SDS011;9750;48.730;10.294;2023-06-14T11:02:59;5.13;;;3.92;;
19231;SDS011;9750;48.730;10.294;2023-06-14T11:06:10;4.95;;;3.95;;
19231;SDS011;9750;48.730;10.294;2023-06-14T11:08:56;4.85;;;3.90;;
19231;SDS011;9750;48.730;10.294;2023-06-14T11:11:41;5.22;;;3.60;;
19231;SDS011;9750;48.730;10.294;2023-06-14T11:14:11;9.15;;;4.03;;
19231;SDS011;9750;48.730;10.294;2023-06-14T11:16:38;4.95;;;3.85;;
19231;SDS011;9750;48.730;10.294;2023-06-14T11:19:05;7.95;;;4.15;;
19231;SDS011;9750;48.730;10.294;2023-06-14T11:21:33;4.43;;;3.85;;
19231;SDS011;9750;48.730;10.294;2023-06-14T11:24:00;4.68;;;4.18;;
19231;SDS011;9750;48.730;10.294;2023-06-14T11:26:27;4.38;;;3.40;;
19231;SDS011;9750;48.730;10.294;2023-06-14T11:28:56;4.35;;;3.95;;
19231;SDS011;9750;48.730;10.294;2023-06-14T11:31:27;5.93;;;3.55;;
19231;SDS011;9750;48.730;10.294;2023-06-14T11:33:54;5.97;;;4.20;;
19231;SDS011;9750;48.730;10.294;2023-06-14T11:36:22;4.20;;;3.80;;
19231;SDS011;9750;48.730;10.294;2023-06-14T11:38:57;5.60;;;3.78;;
19231;SDS011;9750;48.730;10.294;2023-06-14T11:41:25;4.32;;;3.90;;
19231;SDS011;9750;48.730;10.294;2023-06-14T11:43:59;5.85;;;4.00;;
19231;SDS011;9750;48.730;10.294;2023-06-14T11:46:29;5.93;;;4.15;;
19231;SDS011;9750;48.730;10.294;2023-06-14T11:48:56;6.18;;;3.80;;
19231;SDS011;9750;48.730;10.294;2023-06-14T11:51:23;4.50;;;3.70;;
19231;SDS011;9750;48.730;10.294;2023-06-14T11:53:51;4.50;;;3.90;;
19231;SDS011;9750;48.730;10.294;2023-06-14T11:56:18;5.20;;;3.90;;
19231;SDS011;9750;48.730;10.294;2023-06-14T11:58:46;8.00;;;4.10;;
19231;SDS011;9750;48.730;10.294;2023-06-14T12:01:14;5.50;;;4.13;;
19231;SDS011;9750;48.730;10.294;2023-06-14T12:03:48;5.68;;;4.13;;
19231;SDS011;9750;48.730;10.294;2023-06-14T12:06:16;4.00;;;3.70;;
19231;SDS011;9750;48.730;10.294;2023-06-14T12:08:55;6.53;;;4.20;;
19231;SDS011;9750;48.730;10.294;2023-06-14T12:11:23;5.15;;;3.90;;
19231;SDS011;9750;48.730;10.294;2023-06-14T12:13:54;4.65;;;3.88;;
19231;SDS011;9750;48.730;10.294;2023-06-14T12:16:29;5.32;;;4.28;;
19231;SDS011;9750;48.730;10.294;2023-06-14T12:19:01;4.65;;;4.00;;
19231;SDS011;9750;48.730;10.294;2023-06-14T12:21:36;4.40;;;4.00;;
19231;SDS011;9750;48.730;10.294;2023-06-14T12:24:05;4.25;;;3.85;;
19231;SDS011;9750;48.730;10.294;2023-06-14T12:26:33;4.32;;;3.88;;
19231;SDS011;9750;48.730;10.294;2023-06-14T12:29:05;4.75;;;4.00;;
19231;SDS011;9750;48.730;10.294;2023-06-14T12:31:32;4.40;;;3.95;;
19231;SDS011;9750;48.730;10.294;2023-06-14T12:34:01;5.22;;;4.28;;
19231;SDS011;9750;48.730;10.294;2023-06-14T12:36:29;5.30;;;4.13;;
19231;SDS011;9750;48.730;10.294;2023-06-14T12:38:57;4.65;;;4.05;;
19231;SDS011;9750;48.730;10.294;2023-06-14T12:41:24;5.72;;;4.30;;
19231;SDS011;9750;48.730;10.294;2023-06-14T12:43:52;5.40;;;4.18;;
19231;SDS011;9750;48.730;10.294;2023-06-14T12:46:19;5.60;;;3.60;;
19231;SDS011;9750;48.730;10.294;2023-06-14T12:48:47;5.40;;;4.20;;
19231;SDS011;9750;48.730;10.294;2023-06-14T12:51:16;9.13;;;4.40;;
19231;SDS011;9750;48.730;10.294;2023-06-14T12:53:43;4.35;;;3.85;;
19231;SDS011;9750;48.730;10.294;2023-06-14T12:56:10;5.30;;;3.75;;
19231;SDS011;9750;48.730;10.294;2023-06-14T12:58:37;5.28;;;3.90;;
19231;SDS011;9750;48.730;10.294;2023-06-14T13:01:05;4.05;;;3.65;;
19231;SDS011;9750;48.730;10.294;2023-06-14T13:03:32;6.65;;;3.83;;
19231;SDS011;9750;48.730;10.294;2023-06-14T13:05:59;4.30;;;3.90;;
19231;SDS011;9750;48.730;10.294;2023-06-14T13:08:29;5.80;;;4.22;;
19231;SDS011;9750;48.730;10.294;2023-06-14T13:10:57;4.55;;;3.88;;
19231;SDS011;9750;48.730;10.294;2023-06-14T13:13:26;4.20;;;3.85;;
19231;SDS011;9750;48.730;10.294;2023-06-14T13:15:54;4.35;;;3.95;;
19231;SDS011;9750;48.730;10.294;2023-06-14T13:18:22;4.30;;;3.90;;
19231;SDS011;9750;48.730;10.294;2023-06-14T13:20:49;4.00;;;3.55;;
19231;SDS011;9750;48.730;10.294;2023-06-14T13:23:16;4.82;;;4.00;;
19231;SDS011;9750;48.730;10.294;2023-06-14T13:25:45;4.80;;;3.63;;
19231;SDS011;9750;48.730;10.294;2023-06-14T13:28:14;4.00;;;3.55;;
19231;SDS011;9750;48.730;10.294;2023-06-14T13:30:42;4.50;;;3.85;;
19231;SDS011;9750;48.730;10.294;2023-06-14T13:33:09;4.20;;;3.80;;
19231;SDS011;9750;48.730;10.294;2023-06-14T13:35:36;4.07;;;3.67;;
19231;SDS011;9750;48.730;10.294;2023-06-14T13:38:03;4.88;;;3.88;;
19231;SDS011;9750;48.730;10.294;2023-06-14T13:40:31;4.30;;;3.90;;
19231;SDS011;9750;48.730;10.294;2023-06-14T13:42:59;7.32;;;3.95;;
19231;SDS011;9750;48.730;10.294;2023-06-14T13:45:26;4.50;;;4.10;;
19231;SDS011;9750;48.730;10.294;2023-06-14T13:47:54;5.53;;;4.25;;
19231;SDS011;9750;48.730;10.294;2023-06-14T13:50:21;4.72;;;3.92;;
19231;SDS011;9750;48.730;10.294;2023-06-14T13:52:48;4.50;;;3.80;;
19231;SDS011;9750;48.730;10.294;2023-06-14T13:55:15;6.63;;;3.90;;
19231;SDS011;9750;48.730;10.294;2023-06-14T13:57:43;5.28;;;3.85;;
19231;SDS011;9750;48.730;10.294;2023-06-14T14:00:12;4.88;;;4.10;;
19231;SDS011;9750;48.730;10.294;2023-06-14T14:02:40;3.97;;;3.55;;
19231;SDS011;9750;48.730;10.294;2023-06-14T14:05:08;4.47;;;4.03;;
19231;SDS011;9750;48.730;10.294;2023-06-14T14:10:57;3.90;;;3.50;;
19231;SDS011;9750;48.730;10.294;2023-06-14T14:13:26;3.85;;;3.55;;
19231;SDS011;9750;48.730;10.294;2023-06-14T14:15:54;4.45;;;4.05;;
19231;SDS011;9750;48.730;10.294;2023-06-14T14:18:21;4.40;;;4.00;;
19231;SDS011;9750;48.730;10.294;2023-06-14T14:20:49;6.47;;;3.75;;
19231;SDS011;9750;48.730;10.294;2023-06-14T14:23:16;4.38;;;3.50;;
19231;SDS011;9750;48.730;10.294;2023-06-14T14:25:45;4.13;;;3.72;;
19231;SDS011;9750;48.730;10.294;2023-06-14T14:31:12;4.93;;;3.85;;
19231;SDS011;9750;48.730;10.294;2023-06-14T14:33:40;4.30;;;3.90;;
19231;SDS011;9750;48.730;10.294;2023-06-14T14:36:07;4.13;;;3.67;;
19231;SDS011;9750;48.730;10.294;2023-06-14T14:38:34;4.30;;;3.90;;
19231;SDS011;9750;48.730;10.294;2023-06-14T14:41:01;4.93;;;3.60;;
19231;SDS011;9750;48.730;10.294;2023-06-14T14:43:28;3.78;;;3.40;;
19231;SDS011;9750;48.730;10.294;2023-06-14T14:45:57;5.25;;;3.65;;
19231;SDS011;9750;48.730;10.294;2023-06-14T14:48:26;4.00;;;3.70;;
19231;SDS011;9750;48.730;10.294;2023-06-14T14:50:53;5.10;;;3.33;;
19231;SDS011;9750;48.730;10.294;2023-06-14T14:53:20;4.38;;;3.47;;
19231;SDS011;9750;48.730;10.294;2023-06-14T14:55:48;4.35;;;3.47;;
19231;SDS011;9750;48.730;10.294;2023-06-14T14:58:15;4.32;;;3.80;;
19231;SDS011;9750;48.730;10.294;2023-06-14T15:00:43;4.40;;;4.00;;
19231;SDS011;9750;48.730;10.294;2023-06-14T15:03:11;4.55;;;3.95;;
19231;SDS011;9750;48.730;10.294;2023-06-14T15:05:39;4.63;;;3.90;;
19231;SDS011;9750;48.730;10.294;2023-06-14T15:08:07;4.18;;;3.78;;
19231;SDS011;9750;48.730;10.294;2023-06-14T15:10:37;7.30;;;3.90;;
19231;SDS011;9750;48.730;10.294;2023-06-14T15:13:05;7.28;;;3.90;;
19231;SDS011;9750;48.730;10.294;2023-06-14T15:15:33;4.25;;;3.85;;
19231;SDS011;9750;48.730;10.294;2023-06-14T15:18:00;4.78;;;3.65;;
19231;SDS011;9750;48.730;10.294;2023-06-14T15:20:28;4.13;;;3.72;;
19231;SDS011;9750;48.730;10.294;2023-06-14T15:22:56;4.90;;;4.13;;
19231;SDS011;9750;48.730;10.294;2023-06-14T15:25:25;4.30;;;3.90;;
19231;SDS011;9750;48.730;10.294;2023-06-14T15:27:53;4.55;;;4.15;;